Time;durP1;ratioP1;P1;durP2;ratioP2;P2;SDS_P1;SDS_P2;PMS_P1;PMS_P2;Temp;Humidity;BMP_temperature;BMP_pressure;BME280_temperature;BME280_humidity;BME280_pressure;Samples;Min_cycle;Max_cycle;Signal;HPM_P1;HPM_P2
2022/03/26 00:00:34;;;;;;;;;9.25;6.00;;;;;;;;4965795;28;51059;-54
2022/03/26 00:03:20;;;;;;;;;13.75;8.75;;;;;;;;4976811;28;51448;-49
2022/03/26 00:06:26;;;;;;;;;15.25;9.25;;;;;;;;4980987;28;51108;-47
2022/03/26 00:09:11;;;;;;;;;14.25;7.75;;;;;;;;4983516;28;51215;-48
2022/03/26 00:12:12;;;;;;;;;12.25;8.00;;;;;;;;4972591;28;51018;-49
2022/03/26 00:15:00;;;;;;;;;12.75;8.75;;;;;;;;4979322;28;51092;-48
2022/03/26 00:18:02;;;;;;;;;15.00;10.00;;;;;;;;4980729;28;51474;-51
2022/03/26 00:20:59;;;;;;;;;14.00;8.50;;;;;;;;4979852;28;51099;-50
2022/03/26 00:23:45;;;;;;;;;11.50;7.50;;;;;;;;4980988;28;51172;-50
2022/03/26 00:26:34;;;;;;;;;17.25;11.00;;;;;;;;4974772;28;51037;-49
2022/03/26 00:29:21;;;;;;;;;15.75;11.50;;;;;;;;4979258;28;51458;-52
2022/03/26 00:34:54;;;;;;;;;16.00;7.50;;;;;;;;4920014;28;51105;-48
2022/03/26 00:37:47;;;;;;;;;10.25;9.00;;;;;;;;4913783;28;51523;-48
2022/03/26 00:40:37;;;;;;;;;7.00;7.00;;;;;;;;4919389;28;51283;-51
2022/03/26 00:43:25;;;;;;;;;10.75;9.50;;;;;;;;4919203;28;51601;-51
2022/03/26 00:46:11;;;;;;;;;19.00;9.50;;;;;;;;4919394;28;51063;-49
2022/03/26 00:48:59;;;;;;;;;13.50;10.50;;;;;;;;4919871;28;51184;-52
2022/03/26 00:51:47;;;;;;;;;13.25;10.25;;;;;;;;4919585;28;51111;-50
2022/03/26 00:54:32;;;;;;;;;14.25;8.00;;;;;;;;4919830;28;51164;-50
2022/03/26 00:57:28;;;;;;;;;10.75;9.25;;;;;;;;4919345;28;51493;-53
2022/03/26 01:00:20;;;;;;;;;19.25;10.50;;;;;;;;4920041;28;51214;-48
2022/03/26 01:03:10;;;;;;;;;15.25;9.25;;;;;;;;4919590;28;51117;-51
2022/03/26 01:05:57;;;;;;;;;19.75;12.25;;;;;;;;4919515;28;51251;-50
2022/03/26 01:08:51;;;;;;;;;19.00;11.50;;;;;;;;4919603;28;51196;-47
2022/03/26 01:11:36;;;;;;;;;14.50;11.00;;;;;;;;4938441;28;51076;-50
2022/03/26 01:14:22;;;;;;;;;18.50;12.00;;;;;;;;4980169;28;51072;-48
2022/03/26 01:17:08;;;;;;;;;16.75;10.25;;;;;;;;4979142;28;51095;-53
2022/03/26 01:19:54;;;;;;;;;13.00;11.25;;;;;;;;4979102;28;51226;-52
2022/03/26 01:22:39;;;;;;;;;20.50;11.00;;;;;;;;4979903;28;51555;-48
2022/03/26 01:25:24;;;;;;;;;22.75;9.00;;;;;;;;4979258;28;51196;-47
2022/03/26 01:28:18;;;;;;;;;16.50;11.25;;;;;;;;4979107;28;51081;-53
2022/03/26 01:31:05;;;;;;;;;13.50;10.00;;;;;;;;4978939;28;51475;-50
2022/03/26 01:33:50;;;;;;;;;16.75;12.00;;;;;;;;4936938;28;51233;-49
2022/03/26 01:36:44;;;;;;;;;17.50;9.50;;;;;;;;4979014;28;51131;-52
2022/03/26 01:39:29;;;;;;;;;14.50;10.00;;;;;;;;4977459;28;51172;-51
2022/03/26 01:42:13;;;;;;;;;12.50;8.25;;;;;;;;4976844;28;51107;-52
2022/03/26 01:44:59;;;;;;;;;13.00;8.25;;;;;;;;4979268;28;51051;-52
2022/03/26 01:47:45;;;;;;;;;14.25;11.75;;;;;;;;4978886;28;51192;-50
2022/03/26 01:50:30;;;;;;;;;17.25;11.25;;;;;;;;4978969;28;51059;-48
2022/03/26 01:53:16;;;;;;;;;22.00;12.50;;;;;;;;4979221;28;51543;-50
2022/03/26 01:56:00;;;;;;;;;18.00;10.25;;;;;;;;4979114;28;51038;-54
2022/03/26 01:58:46;;;;;;;;;20.25;12.25;;;;;;;;4976629;28;51178;-49
2022/03/26 02:01:33;;;;;;;;;25.75;14.25;;;;;;;;4976408;28;51151;-51
2022/03/26 02:04:18;;;;;;;;;24.00;13.00;;;;;;;;4977255;28;51079;-47
2022/03/26 02:07:05;;;;;;;;;25.00;13.75;;;;;;;;4978323;28;51485;-50
2022/03/26 02:09:52;;;;;;;;;20.50;14.00;;;;;;;;4963685;28;51429;-51
2022/03/26 02:12:40;;;;;;;;;23.25;12.25;;;;;;;;4978783;28;51429;-52
2022/03/26 02:15:29;;;;;;;;;16.00;12.50;;;;;;;;4978857;28;51041;-52
2022/03/26 02:18:14;;;;;;;;;23.00;12.50;;;;;;;;4978505;28;51101;-49
2022/03/26 02:21:04;;;;;;;;;16.50;11.00;;;;;;;;4978386;28;51168;-52
2022/03/26 02:23:51;;;;;;;;;20.50;11.00;;;;;;;;4979249;28;51117;-50
2022/03/26 02:26:37;;;;;;;;;22.00;10.50;;;;;;;;4971627;28;51104;-51
2022/03/26 02:29:21;;;;;;;;;22.50;13.75;;;;;;;;4978972;28;51176;-51
2022/03/26 02:32:11;;;;;;;;;16.00;8.25;;;;;;;;4978077;28;51453;-50
2022/03/26 02:34:56;;;;;;;;;20.00;13.75;;;;;;;;4979089;28;51179;-45
2022/03/26 02:37:41;;;;;;;;;17.75;12.00;;;;;;;;4978522;28;51128;-50
2022/03/26 02:40:26;;;;;;;;;13.75;12.00;;;;;;;;4980062;28;51084;-50
2022/03/26 02:43:22;;;;;;;;;17.50;12.25;;;;;;;;4979631;28;51108;-52
2022/03/26 02:46:07;;;;;;;;;18.25;12.25;;;;;;;;4982495;28;51226;-47
2022/03/26 02:48:53;;;;;;;;;23.25;14.25;;;;;;;;4982533;28;51115;-53
2022/03/26 02:51:43;;;;;;;;;22.00;13.25;;;;;;;;4981671;28;51207;-49
2022/03/26 02:54:31;;;;;;;;;17.25;12.75;;;;;;;;4981833;28;51389;-52
2022/03/26 02:57:15;;;;;;;;;14.00;12.00;;;;;;;;4981425;28;51675;-53
2022/03/26 03:00:04;;;;;;;;;21.75;13.75;;;;;;;;4979546;28;51135;-51
2022/03/26 03:02:54;;;;;;;;;21.00;13.50;;;;;;;;4981701;28;51204;-48
2022/03/26 03:05:38;;;;;;;;;21.75;14.00;;;;;;;;4982387;28;51525;-53
2022/03/26 03:08:25;;;;;;;;;16.00;11.75;;;;;;;;4981866;28;51371;-51
2022/03/26 03:11:09;;;;;;;;;21.50;12.75;;;;;;;;4981118;28;51476;-48
2022/03/26 03:13:53;;;;;;;;;17.50;14.00;;;;;;;;4981654;28;51337;-58
2022/03/26 03:16:39;;;;;;;;;24.00;15.25;;;;;;;;4982184;28;51061;-54
2022/03/26 03:19:25;;;;;;;;;21.00;14.75;;;;;;;;4975923;28;51076;-54
2022/03/26 03:22:25;;;;;;;;;20.50;12.00;;;;;;;;4980941;28;51417;-47
2022/03/26 03:25:11;;;;;;;;;21.50;12.75;;;;;;;;4981290;28;51261;-50
2022/03/26 03:28:14;;;;;;;;;24.50;15.50;;;;;;;;4981720;28;51140;-55
2022/03/26 03:31:01;;;;;;;;;20.50;13.50;;;;;;;;4977695;28;51320;-51
2022/03/26 03:33:46;;;;;;;;;18.50;14.00;;;;;;;;4973485;28;51553;-55
2022/03/26 03:36:32;;;;;;;;;16.50;13.00;;;;;;;;4980802;28;51326;-52
2022/03/26 03:39:17;;;;;;;;;22.25;16.50;;;;;;;;4979881;28;51147;-53
2022/03/26 03:42:02;;;;;;;;;23.00;15.25;;;;;;;;4981440;28;51047;-52
2022/03/26 03:44:47;;;;;;;;;23.00;13.50;;;;;;;;4981886;28;51116;-54
2022/03/26 03:47:33;;;;;;;;;20.50;12.50;;;;;;;;4973810;28;51494;-56
2022/03/26 03:50:20;;;;;;;;;16.25;14.25;;;;;;;;4981197;28;51015;-55
2022/03/26 03:53:04;;;;;;;;;19.50;9.50;;;;;;;;4981165;28;51198;-53
2022/03/26 03:55:48;;;;;;;;;15.25;10.50;;;;;;;;4981637;28;51165;-52
2022/03/26 03:58:36;;;;;;;;;15.00;14.00;;;;;;;;4979238;28;51243;-51
2022/03/26 04:01:22;;;;;;;;;17.00;11.75;;;;;;;;4981176;28;51560;-53
2022/03/26 04:04:06;;;;;;;;;16.75;14.00;;;;;;;;4966323;28;51458;-51
2022/03/26 04:06:51;;;;;;;;;19.50;13.50;;;;;;;;4980892;28;51357;-56
2022/03/26 04:09:40;;;;;;;;;20.00;12.00;;;;;;;;4981103;28;51123;-56
2022/03/26 04:12:25;;;;;;;;;17.50;12.50;;;;;;;;4980169;28;51484;-57
2022/03/26 04:15:14;;;;;;;;;21.75;14.25;;;;;;;;4980448;28;51327;-56
2022/03/26 04:18:01;;;;;;;;;17.00;13.50;;;;;;;;4965454;28;51109;-52
2022/03/26 04:20:51;;;;;;;;;16.25;14.50;;;;;;;;4981185;28;51167;-54
2022/03/26 04:23:36;;;;;;;;;17.75;10.75;;;;;;;;4971280;28;51105;-54
2022/03/26 04:26:22;;;;;;;;;19.00;13.50;;;;;;;;4961427;28;51043;-53
2022/03/26 04:29:21;;;;;;;;;16.50;13.50;;;;;;;;4976694;28;51424;-52
2022/03/26 04:32:05;;;;;;;;;13.25;10.25;;;;;;;;4969173;28;51338;-53
2022/03/26 04:34:50;;;;;;;;;24.50;12.25;;;;;;;;4979135;28;51327;-50
2022/03/26 04:37:38;;;;;;;;;21.25;13.50;;;;;;;;4980319;28;51558;-51
2022/03/26 04:40:23;;;;;;;;;17.75;11.25;;;;;;;;4975562;28;51571;-52
2022/03/26 04:43:08;;;;;;;;;16.75;13.00;;;;;;;;4976240;28;51102;-55
2022/03/26 04:46:03;;;;;;;;;21.00;12.00;;;;;;;;4980681;28;51056;-56
2022/03/26 04:48:53;;;;;;;;;14.00;8.00;;;;;;;;4980083;28;51562;-54
2022/03/26 04:51:37;;;;;;;;;16.25;10.50;;;;;;;;4968658;28;51162;-53
2022/03/26 04:54:23;;;;;;;;;13.00;9.75;;;;;;;;4976707;28;51132;-51
2022/03/26 04:57:13;;;;;;;;;16.25;8.50;;;;;;;;4980303;28;51136;-52
2022/03/26 05:00:01;;;;;;;;;13.25;10.75;;;;;;;;4979594;28;51151;-48
2022/03/26 05:03:06;;;;;;;;;15.00;11.75;;;;;;;;4979437;28;51119;-55
2022/03/26 05:05:52;;;;;;;;;11.50;10.75;;;;;;;;4979324;28;51129;-53
2022/03/26 05:08:38;;;;;;;;;21.00;12.50;;;;;;;;4976094;28;51141;-53
2022/03/26 05:11:23;;;;;;;;;20.00;11.00;;;;;;;;4977197;28;51143;-55
2022/03/26 05:14:07;;;;;;;;;16.25;9.75;;;;;;;;4977707;28;51391;-49
2022/03/26 05:16:55;;;;;;;;;14.50;10.50;;;;;;;;4980312;28;51203;-53
2022/03/26 05:19:51;;;;;;;;;12.00;11.00;;;;;;;;4975660;28;51152;-56
2022/03/26 05:22:47;;;;;;;;;12.75;8.25;;;;;;;;4978522;28;51105;-51
2022/03/26 05:25:44;;;;;;;;;17.25;12.75;;;;;;;;4979096;28;51099;-52
2022/03/26 05:28:29;;;;;;;;;18.00;11.50;;;;;;;;4978012;28;51175;-50
2022/03/26 05:31:23;;;;;;;;;15.00;8.50;;;;;;;;4977890;28;51598;-55
2022/03/26 05:34:09;;;;;;;;;16.75;10.75;;;;;;;;4979694;28;51081;-51
2022/03/26 05:36:53;;;;;;;;;15.50;9.75;;;;;;;;4980136;28;51144;-55
2022/03/26 05:39:38;;;;;;;;;22.75;13.75;;;;;;;;4979120;28;51433;-53
2022/03/26 05:42:35;;;;;;;;;16.50;11.25;;;;;;;;4979439;28;51607;-49
2022/03/26 05:45:40;;;;;;;;;19.50;10.50;;;;;;;;4980014;28;51378;-48
2022/03/26 05:48:26;;;;;;;;;17.50;12.75;;;;;;;;4979112;28;51341;-54
2022/03/26 05:51:11;;;;;;;;;11.00;6.50;;;;;;;;4975282;28;51034;-55
2022/03/26 05:54:02;;;;;;;;;23.75;13.25;;;;;;;;4979210;28;51571;-52
2022/03/26 05:56:55;;;;;;;;;22.75;15.00;;;;;;;;4979279;28;51640;-53
2022/03/26 05:59:39;;;;;;;;;17.25;13.75;;;;;;;;4979069;28;51354;-53
2022/03/26 06:02:25;;;;;;;;;17.75;12.50;;;;;;;;4979911;28;51186;-58
2022/03/26 06:05:09;;;;;;;;;16.75;11.50;;;;;;;;4979015;28;51400;-52
2022/03/26 06:07:54;;;;;;;;;16.75;12.00;;;;;;;;4978782;28;51162;-53
2022/03/26 06:10:41;;;;;;;;;11.00;7.50;;;;;;;;4979555;28;51423;-50
2022/03/26 06:13:29;;;;;;;;;18.75;11.50;;;;;;;;4977198;28;51059;-55
2022/03/26 06:16:16;;;;;;;;;23.75;16.25;;;;;;;;4982390;28;51586;-52
2022/03/26 06:19:03;;;;;;;;;19.25;12.00;;;;;;;;4983107;28;51360;-50
2022/03/26 06:21:48;;;;;;;;;14.25;11.25;;;;;;;;4983609;28;51112;-54
2022/03/26 06:24:33;;;;;;;;;19.25;13.00;;;;;;;;4982333;28;51349;-54
2022/03/26 06:27:24;;;;;;;;;17.25;11.00;;;;;;;;4978714;28;51088;-56
2022/03/26 06:30:11;;;;;;;;;15.50;11.25;;;;;;;;4982847;28;51405;-55
2022/03/26 06:32:59;;;;;;;;;15.50;11.00;;;;;;;;4963404;28;51188;-49
2022/03/26 06:35:46;;;;;;;;;21.75;15.75;;;;;;;;4964421;28;51309;-53
2022/03/26 06:38:32;;;;;;;;;17.75;15.00;;;;;;;;4982963;28;51024;-51
2022/03/26 06:41:18;;;;;;;;;22.00;14.00;;;;;;;;4981727;28;51152;-51
2022/03/26 06:44:02;;;;;;;;;13.00;11.00;;;;;;;;4981489;28;51088;-55
2022/03/26 06:46:50;;;;;;;;;17.25;12.00;;;;;;;;4973735;28;51702;-54
2022/03/26 06:49:35;;;;;;;;;20.00;14.25;;;;;;;;4982892;28;51025;-54
2022/03/26 06:52:22;;;;;;;;;18.75;12.50;;;;;;;;4981499;28;51151;-52
2022/03/26 06:55:08;;;;;;;;;16.25;14.50;;;;;;;;4981747;28;51086;-52
2022/03/26 06:57:53;;;;;;;;;17.50;10.50;;;;;;;;4974452;28;51108;-52
2022/03/26 07:00:37;;;;;;;;;20.00;14.00;;;;;;;;4980074;28;51392;-52
2022/03/26 07:03:24;;;;;;;;;22.00;14.00;;;;;;;;4975224;28;51121;-50
2022/03/26 07:06:09;;;;;;;;;15.50;10.50;;;;;;;;4963063;28;51085;-51
2022/03/26 07:08:55;;;;;;;;;25.00;13.50;;;;;;;;4979640;28;51153;-52
2022/03/26 07:11:50;;;;;;;;;18.25;10.50;;;;;;;;4967837;28;51162;-53
2022/03/26 07:14:34;;;;;;;;;22.25;15.00;;;;;;;;4981411;28;51152;-50
2022/03/26 07:17:19;;;;;;;;;15.25;11.50;;;;;;;;4982430;28;50973;-51
2022/03/26 07:20:08;;;;;;;;;15.75;13.00;;;;;;;;4980104;28;51539;-53
2022/03/26 07:22:53;;;;;;;;;14.00;12.00;;;;;;;;4982106;28;51161;-54
2022/03/26 07:25:52;;;;;;;;;17.50;11.50;;;;;;;;4981128;28;51147;-52
2022/03/26 07:28:58;;;;;;;;;19.75;13.25;;;;;;;;4981594;28;51135;-50
2022/03/26 07:31:42;;;;;;;;;18.00;13.00;;;;;;;;4981222;28;51190;-51
2022/03/26 07:34:37;;;;;;;;;21.25;14.25;;;;;;;;4976000;28;51496;-54
2022/03/26 07:37:22;;;;;;;;;19.25;14.00;;;;;;;;4979583;28;51507;-50
2022/03/26 07:40:07;;;;;;;;;20.25;13.25;;;;;;;;4980228;28;52260;-54
2022/03/26 07:42:52;;;;;;;;;17.50;11.50;;;;;;;;4969258;28;51015;-52
2022/03/26 07:45:38;;;;;;;;;12.75;11.25;;;;;;;;4973100;28;51052;-51
2022/03/26 07:48:27;;;;;;;;;14.50;10.00;;;;;;;;4963588;28;51324;-51
2022/03/26 07:51:14;;;;;;;;;18.00;9.50;;;;;;;;4981180;28;51353;-52
2022/03/26 07:54:02;;;;;;;;;22.25;11.50;;;;;;;;4981326;28;51213;-51
2022/03/26 07:56:47;;;;;;;;;12.25;10.25;;;;;;;;4982064;28;51009;-51
2022/03/26 07:59:31;;;;;;;;;19.75;13.50;;;;;;;;4981326;28;51132;-52
2022/03/26 08:02:21;;;;;;;;;13.50;10.25;;;;;;;;4981356;28;51160;-51
2022/03/26 08:05:11;;;;;;;;;20.50;13.00;;;;;;;;4969567;28;51192;-54
2022/03/26 08:08:07;;;;;;;;;16.50;10.25;;;;;;;;4962351;28;51027;-53
2022/03/26 08:11:03;;;;;;;;;23.25;13.50;;;;;;;;4978507;28;51170;-53
2022/03/26 08:13:47;;;;;;;;;22.00;12.75;;;;;;;;4981315;28;51204;-50
2022/03/26 08:16:33;;;;;;;;;22.25;12.00;;;;;;;;4980633;28;51629;-51
2022/03/26 08:19:17;;;;;;;;;19.50;12.25;;;;;;;;4979044;28;51465;-51
2022/03/26 08:22:02;;;;;;;;;18.00;11.50;;;;;;;;4979280;28;51127;-50
2022/03/26 08:24:46;;;;;;;;;21.25;13.75;;;;;;;;4977776;28;51376;-50
2022/03/26 08:27:31;;;;;;;;;18.00;12.75;;;;;;;;4978896;28;51596;-54
2022/03/26 08:30:17;;;;;;;;;24.75;13.00;;;;;;;;4980187;28;51465;-51
2022/03/26 08:33:02;;;;;;;;;19.50;13.00;;;;;;;;4977041;28;51120;-53
2022/03/26 08:35:46;;;;;;;;;21.00;11.50;;;;;;;;4978076;28;51276;-53
2022/03/26 08:38:30;;;;;;;;;22.25;13.25;;;;;;;;4978598;28;51545;-53
2022/03/26 08:41:17;;;;;;;;;19.25;11.75;;;;;;;;4979531;28;51326;-49
2022/03/26 08:44:02;;;;;;;;;23.25;13.00;;;;;;;;4980015;28;51527;-53
2022/03/26 08:46:47;;;;;;;;;24.50;15.50;;;;;;;;4983381;28;51056;-50
2022/03/26 08:49:36;;;;;;;;;16.75;12.50;;;;;;;;4979018;28;51297;-51
2022/03/26 08:52:23;;;;;;;;;19.00;12.00;;;;;;;;4976815;28;52121;-50
2022/03/26 08:55:18;;;;;;;;;21.50;14.00;;;;;;;;4978922;28;51003;-52
2022/03/26 08:58:03;;;;;;;;;20.75;14.75;;;;;;;;4965187;28;51164;-49
2022/03/26 09:00:51;;;;;;;;;17.50;12.25;;;;;;;;4978186;28;51124;-50
2022/03/26 09:03:37;;;;;;;;;16.75;13.00;;;;;;;;4963462;28;51294;-53
2022/03/26 09:06:22;;;;;;;;;24.25;13.50;;;;;;;;4973165;28;51164;-52
2022/03/26 09:09:07;;;;;;;;;21.75;13.50;;;;;;;;4978880;28;51178;-51
2022/03/26 09:11:53;;;;;;;;;23.50;13.75;;;;;;;;4980278;28;51104;-52
2022/03/26 09:14:43;;;;;;;;;25.75;16.00;;;;;;;;4978439;28;51111;-54
2022/03/26 09:17:27;;;;;;;;;24.75;15.25;;;;;;;;4976660;28;51551;-53
2022/03/26 09:20:12;;;;;;;;;18.50;13.25;;;;;;;;4979367;28;51060;-53
2022/03/26 09:22:56;;;;;;;;;26.75;13.50;;;;;;;;4973573;28;51112;-49
2022/03/26 09:25:42;;;;;;;;;20.50;15.25;;;;;;;;4968460;28;51361;-53
2022/03/26 09:28:26;;;;;;;;;17.75;11.75;;;;;;;;4959930;28;51138;-50
2022/03/26 09:31:10;;;;;;;;;16.25;11.50;;;;;;;;4969491;28;51392;-50
2022/03/26 09:33:54;;;;;;;;;20.75;13.75;;;;;;;;4975617;28;52800;-49
2022/03/26 09:36:39;;;;;;;;;20.00;14.25;;;;;;;;4976912;28;51266;-51
2022/03/26 09:39:25;;;;;;;;;19.50;13.25;;;;;;;;4963170;28;51191;-52
2022/03/26 09:42:10;;;;;;;;;18.00;12.25;;;;;;;;4969939;28;51396;-52
2022/03/26 09:44:57;;;;;;;;;21.25;11.50;;;;;;;;4962362;28;51327;-52
2022/03/26 09:47:44;;;;;;;;;19.50;12.50;;;;;;;;4958140;28;51184;-51
2022/03/26 09:50:39;;;;;;;;;18.50;12.50;;;;;;;;4965395;28;51493;-50
2022/03/26 09:53:28;;;;;;;;;23.00;12.50;;;;;;;;4976504;28;51192;-53
2022/03/26 09:56:13;;;;;;;;;19.75;13.50;;;;;;;;4959926;28;51482;-51
2022/03/26 09:59:15;;;;;;;;;18.25;13.50;;;;;;;;4961774;28;51255;-51
2022/03/26 10:02:02;;;;;;;;;18.25;12.25;;;;;;;;4977128;28;51177;-54
2022/03/26 10:04:47;;;;;;;;;17.75;13.00;;;;;;;;4963109;28;51129;-51
2022/03/26 10:07:32;;;;;;;;;20.50;15.00;;;;;;;;4978649;28;51467;-49
2022/03/26 10:10:23;;;;;;;;;21.50;13.75;;;;;;;;4978307;28;51131;-51
2022/03/26 10:13:08;;;;;;;;;21.00;11.25;;;;;;;;4977633;28;51259;-50
2022/03/26 10:16:00;;;;;;;;;15.00;12.00;;;;;;;;4978187;28;51521;-54
2022/03/26 10:18:50;;;;;;;;;20.75;14.25;;;;;;;;4976934;28;51005;-50
2022/03/26 10:21:36;;;;;;;;;19.25;15.00;;;;;;;;4978721;28;51096;-52
2022/03/26 10:24:35;;;;;;;;;20.25;13.75;;;;;;;;4978466;28;51250;-52
2022/03/26 10:27:23;;;;;;;;;18.50;13.25;;;;;;;;4975829;28;51206;-52
2022/03/26 10:30:08;;;;;;;;;22.25;14.00;;;;;;;;4979387;28;51141;-51
2022/03/26 10:33:04;;;;;;;;;16.50;11.50;;;;;;;;4980509;28;51419;-53
2022/03/26 10:36:06;;;;;;;;;18.25;11.75;;;;;;;;4977104;28;51150;-53
2022/03/26 10:38:50;;;;;;;;;18.00;13.25;;;;;;;;4969573;28;51104;-53
2022/03/26 10:41:57;;;;;;;;;21.75;10.50;;;;;;;;4963194;28;51174;-52
2022/03/26 10:44:41;;;;;;;;;16.75;12.50;;;;;;;;4968213;28;51086;-48
2022/03/26 10:47:47;;;;;;;;;27.50;21.50;;;;;;;;4974073;28;51161;-49
2022/03/26 10:50:35;;;;;;;;;17.75;11.75;;;;;;;;4973807;28;51262;-50
2022/03/26 10:53:20;;;;;;;;;17.25;13.50;;;;;;;;4977839;28;51207;-53
2022/03/26 10:56:24;;;;;;;;;22.00;17.75;;;;;;;;4976375;28;51130;-52
2022/03/26 10:59:08;;;;;;;;;17.75;11.50;;;;;;;;4978355;28;51072;-51
2022/03/26 11:02:15;;;;;;;;;18.50;13.50;;;;;;;;4978941;28;51149;-51
2022/03/26 11:05:00;;;;;;;;;21.50;12.00;;;;;;;;4981859;28;51171;-51
2022/03/26 11:08:16;;;;;;;;;23.25;12.50;;;;;;;;4980250;28;51040;-53
2022/03/26 11:11:02;;;;;;;;;18.75;13.50;;;;;;;;4979934;28;51160;-51
2022/03/26 11:13:48;;;;;;;;;23.00;15.75;;;;;;;;4966846;28;51079;-52
2022/03/26 11:16:51;;;;;;;;;14.25;9.25;;;;;;;;4974480;28;51100;-52
2022/03/26 11:19:54;;;;;;;;;17.00;13.50;;;;;;;;4980617;28;51179;-51
2022/03/26 11:22:38;;;;;;;;;17.25;14.75;;;;;;;;4979982;28;51128;-50
2022/03/26 11:25:30;;;;;;;;;22.25;15.50;;;;;;;;4977109;28;51517;-51
2022/03/26 11:28:23;;;;;;;;;23.00;14.25;;;;;;;;4975870;28;51187;-51
2022/03/26 11:31:16;;;;;;;;;25.00;14.00;;;;;;;;4978337;28;52710;-48
2022/03/26 11:34:23;;;;;;;;;15.00;13.00;;;;;;;;4964801;28;51433;-52
2022/03/26 11:37:11;;;;;;;;;25.00;14.00;;;;;;;;4966754;28;51345;-48
2022/03/26 11:39:59;;;;;;;;;21.75;16.50;;;;;;;;4979852;28;51187;-47
2022/03/26 11:42:48;;;;;;;;;26.50;13.00;;;;;;;;4970353;28;51305;-47
2022/03/26 11:52:33;;;;;;;;;19.75;15.50;;;;;;;;4980693;28;51263;-48
2022/03/26 11:55:17;;;;;;;;;21.50;18.25;;;;;;;;4979838;28;51122;-48
2022/03/26 11:58:23;;;;;;;;;25.75;14.75;;;;;;;;4981491;28;51053;-47
2022/03/26 12:01:27;;;;;;;;;23.25;17.00;;;;;;;;4980465;28;51482;-47
2022/03/26 12:04:31;;;;;;;;;20.50;17.00;;;;;;;;4979564;28;51025;-49
2022/03/26 12:07:16;;;;;;;;;19.50;16.00;;;;;;;;4979776;28;51455;-52
2022/03/26 12:10:18;;;;;;;;;27.25;15.50;;;;;;;;4981411;28;51142;-53
2022/03/26 12:13:04;;;;;;;;;16.00;13.75;;;;;;;;4979136;28;51495;-51
2022/03/26 12:16:05;;;;;;;;;19.75;14.00;;;;;;;;4979806;28;51057;-50
2022/03/26 12:18:50;;;;;;;;;19.50;12.00;;;;;;;;4981579;28;51301;-53
2022/03/26 12:21:55;;;;;;;;;27.25;16.25;;;;;;;;4980954;28;51212;-49
2022/03/26 12:24:48;;;;;;;;;20.50;15.00;;;;;;;;4978648;28;51559;-50
2022/03/26 12:27:52;;;;;;;;;25.50;15.00;;;;;;;;4979612;28;51472;-51
2022/03/26 12:30:45;;;;;;;;;7.50;2.00;;;;;;;;4962192;28;52112;-49
2022/03/26 12:33:39;;;;;;;;;24.75;15.50;;;;;;;;4979172;28;51212;-50
2022/03/26 12:36:24;;;;;;;;;26.25;16.00;;;;;;;;4980967;28;51041;-53
2022/03/26 12:39:10;;;;;;;;;21.00;13.75;;;;;;;;4980314;28;51125;-48
2022/03/26 12:41:55;;;;;;;;;27.50;17.00;;;;;;;;4980666;28;51132;-50
2022/03/26 12:44:59;;;;;;;;;28.50;15.75;;;;;;;;4981054;28;51036;-53
2022/03/26 12:47:45;;;;;;;;;31.75;15.75;;;;;;;;4980794;28;51031;-49
2022/03/26 12:50:38;;;;;;;;;25.50;16.25;;;;;;;;4967608;28;51241;-49
2022/03/26 12:53:55;;;;;;;;;29.25;17.25;;;;;;;;4963646;28;51156;-50
2022/03/26 12:56:40;;;;;;;;;22.00;15.00;;;;;;;;4980637;28;51102;-53
2022/03/26 12:59:26;;;;;;;;;12.75;4.00;;;;;;;;4951615;28;51173;-48
2022/03/26 13:02:11;;;;;;;;;22.50;17.00;;;;;;;;4970031;28;51104;-53
2022/03/26 13:04:57;;;;;;;;;29.50;18.25;;;;;;;;4972756;28;51516;-51
2022/03/26 13:07:42;;;;;;;;;18.00;14.25;;;;;;;;4981167;28;51068;-52
2022/03/26 13:10:45;;;;;;;;;19.50;15.00;;;;;;;;4971839;28;51662;-49
2022/03/26 13:13:56;;;;;;;;;25.50;18.75;;;;;;;;4967568;28;51188;-54
2022/03/26 13:17:03;;;;;;;;;26.00;16.75;;;;;;;;4972053;28;51167;-49
2022/03/26 13:19:49;;;;;;;;;22.50;17.50;;;;;;;;4973813;28;51152;-52
2022/03/26 13:22:52;;;;;;;;;25.00;18.00;;;;;;;;4976736;28;51180;-50
2022/03/26 13:25:37;;;;;;;;;24.00;15.75;;;;;;;;4972570;28;51743;-50
2022/03/26 13:28:23;;;;;;;;;21.00;15.50;;;;;;;;4976922;28;51198;-52
2022/03/26 13:31:19;;;;;;;;;27.50;16.50;;;;;;;;4975010;28;51165;-51
2022/03/26 13:34:30;;;;;;;;;20.00;15.50;;;;;;;;4977095;28;51315;-51
2022/03/26 13:37:18;;;;;;;;;11.75;9.50;;;;;;;;4978629;28;51223;-51
2022/03/26 13:40:09;;;;;;;;;29.50;15.50;;;;;;;;4976490;28;51164;-50
2022/03/26 13:42:55;;;;;;;;;23.50;17.50;;;;;;;;4975760;28;51492;-52
2022/03/26 13:45:50;;;;;;;;;21.75;17.25;;;;;;;;4973889;28;51091;-49
2022/03/26 13:48:55;;;;;;;;;27.75;16.25;;;;;;;;4953454;28;51169;-50
2022/03/26 13:51:40;;;;;;;;;28.75;16.50;;;;;;;;4978354;28;51132;-53
2022/03/26 13:54:38;;;;;;;;;24.75;15.25;;;;;;;;4978318;28;51208;-50
2022/03/26 13:57:35;;;;;;;;;19.25;14.50;;;;;;;;4977485;28;51407;-51
2022/03/26 14:00:30;;;;;;;;;25.00;17.25;;;;;;;;4976649;28;51151;-50
2022/03/26 14:03:34;;;;;;;;;24.00;16.25;;;;;;;;4979300;28;51513;-52
2022/03/26 14:06:22;;;;;;;;;23.00;13.50;;;;;;;;4970580;28;52328;-49
2022/03/26 14:09:12;;;;;;;;;27.50;18.50;;;;;;;;4978922;28;51201;-48
2022/03/26 14:12:03;;;;;;;;;34.25;20.00;;;;;;;;4976126;28;51172;-53
2022/03/26 14:14:52;;;;;;;;;31.75;19.00;;;;;;;;4960960;28;51190;-52
2022/03/26 14:17:36;;;;;;;;;32.75;17.00;;;;;;;;4976827;28;51131;-49
2022/03/26 14:20:23;;;;;;;;;24.25;17.00;;;;;;;;4976984;28;51202;-54
2022/03/26 14:23:27;;;;;;;;;19.00;14.00;;;;;;;;4975145;28;51461;-52
2022/03/26 14:26:11;;;;;;;;;22.00;15.00;;;;;;;;4967994;28;51139;-53
2022/03/26 14:28:56;;;;;;;;;29.00;20.75;;;;;;;;4962012;28;51505;-52
2022/03/26 14:31:51;;;;;;;;;25.75;15.50;;;;;;;;4967731;28;51131;-50
2022/03/26 14:34:36;;;;;;;;;28.75;16.50;;;;;;;;4968869;28;51086;-52
2022/03/26 14:37:21;;;;;;;;;29.00;18.50;;;;;;;;4971095;28;51915;-49
2022/03/26 14:40:06;;;;;;;;;22.75;17.00;;;;;;;;4964451;28;51245;-47
2022/03/26 14:42:53;;;;;;;;;31.25;20.50;;;;;;;;4972818;28;51254;-49
2022/03/26 14:45:39;;;;;;;;;30.00;16.50;;;;;;;;4981845;28;51467;-51
2022/03/26 14:48:33;;;;;;;;;26.50;14.25;;;;;;;;4977696;28;52067;-54
2022/03/26 14:51:18;;;;;;;;;21.75;12.75;;;;;;;;4980058;28;51180;-50
2022/03/26 14:54:24;;;;;;;;;21.50;12.75;;;;;;;;4981140;28;51137;-54
2022/03/26 14:57:20;;;;;;;;;21.00;13.25;;;;;;;;4970986;28;51471;-52
2022/03/26 15:00:06;;;;;;;;;22.25;14.25;;;;;;;;4960221;28;51105;-52
2022/03/26 15:02:54;;;;;;;;;15.75;10.25;;;;;;;;4974826;28;51198;-52
2022/03/26 15:05:39;;;;;;;;;20.50;15.25;;;;;;;;4962643;28;51227;-52
2022/03/26 15:08:23;;;;;;;;;24.75;13.25;;;;;;;;4971976;28;51562;-50
2022/03/26 15:11:08;;;;;;;;;22.75;13.50;;;;;;;;4968588;28;51278;-52
2022/03/26 15:13:52;;;;;;;;;23.75;13.25;;;;;;;;4969479;28;51532;-50
2022/03/26 15:16:37;;;;;;;;;17.50;13.50;;;;;;;;4979004;28;51171;-51
2022/03/26 15:19:21;;;;;;;;;18.25;14.75;;;;;;;;4980979;28;51461;-50
2022/03/26 15:22:06;;;;;;;;;13.25;9.00;;;;;;;;4979251;28;51151;-51
2022/03/26 15:24:51;;;;;;;;;22.50;11.25;;;;;;;;4980266;28;51100;-51
2022/03/26 15:27:36;;;;;;;;;24.50;16.25;;;;;;;;4980265;28;51484;-53
2022/03/26 15:30:20;;;;;;;;;46.50;33.75;;;;;;;;4977027;28;51358;-52
2022/03/26 15:33:05;;;;;;;;;43.75;29.00;;;;;;;;4975902;28;51249;-51
2022/03/26 15:35:49;;;;;;;;;21.25;14.75;;;;;;;;4975095;28;51125;-51
2022/03/26 15:38:34;;;;;;;;;25.75;15.25;;;;;;;;4971033;28;51942;-49
2022/03/26 15:41:19;;;;;;;;;28.50;19.50;;;;;;;;4971706;28;51276;-51
2022/03/26 15:44:04;;;;;;;;;17.75;13.50;;;;;;;;4969504;28;51455;-49
2022/03/26 15:46:48;;;;;;;;;17.00;14.25;;;;;;;;4966326;28;51199;-54
2022/03/26 15:49:33;;;;;;;;;22.50;18.00;;;;;;;;4971817;28;51161;-52
2022/03/26 15:52:24;;;;;;;;;21.75;17.00;;;;;;;;4963909;28;51744;-48
2022/03/26 15:55:08;;;;;;;;;21.00;16.75;;;;;;;;4963169;28;51232;-50
2022/03/26 15:57:52;;;;;;;;;14.00;13.50;;;;;;;;4973345;28;51049;-53
2022/03/26 16:00:36;;;;;;;;;28.50;18.25;;;;;;;;4971537;28;51190;-51
2022/03/26 16:03:21;;;;;;;;;22.25;16.75;;;;;;;;4967384;28;51337;-50
2022/03/26 16:06:17;;;;;;;;;19.25;16.00;;;;;;;;4959980;28;51109;-52
2022/03/26 16:09:02;;;;;;;;;22.00;14.75;;;;;;;;4968141;28;51034;-53
2022/03/26 16:11:46;;;;;;;;;15.50;12.25;;;;;;;;4969244;28;52079;-51
2022/03/26 16:14:31;;;;;;;;;17.00;12.75;;;;;;;;4963146;28;51647;-54
2022/03/26 16:17:15;;;;;;;;;18.25;14.75;;;;;;;;4967918;28;51454;-53
2022/03/26 16:20:03;;;;;;;;;22.75;13.75;;;;;;;;4973759;28;51186;-51
2022/03/26 16:22:47;;;;;;;;;24.25;19.75;;;;;;;;4980358;28;51572;-53
2022/03/26 16:25:33;;;;;;;;;37.00;25.25;;;;;;;;4981426;28;51194;-53
2022/03/26 16:28:19;;;;;;;;;30.00;22.50;;;;;;;;4980445;28;51059;-51
2022/03/26 16:31:04;;;;;;;;;28.00;18.75;;;;;;;;4966159;28;51251;-53
2022/03/26 16:33:51;;;;;;;;;21.00;13.75;;;;;;;;4969871;28;51731;-53